M I D A S
Marine Information and Data Acquisition System
Tripno 1017 of the Zeeleeuw from 2005-10-12 06:25:38 to 2005-10-12 13:09:30
Back to CruiseResearch ActivitiesStationsMapUnderway DataData graphs

EquipmentUnitsComment
TimeDGPSUTC
LatitudeDGPSDM.mWGS84
LongitudeDGPSDM.mWGS84
TemperatureSBE03/SBE38deg celciusITS90
ConductivitySBE21S/mITS90
SalinitySBE21 Practical Salinity Units
ChlorophylAChelsea fluorimeterg/lCalibrated in Aceton
Missing or incorrect values are displayed as -999
Sea surface data collected by the RV Zeeleeuw from 2005-10-12 06:26:49 to 2005-10-12 13:18:30
Time Latitude Longitude Temperature Conductivity Salinity ChlorophylA
2005-10-12 06:27:55 51°13.613 2°56.043 -999 0.011476 0.065423 -1.017215
2005-10-12 06:28:55 51°13.639 2°55.946 -999 0.011476 0.065422 -1.017215
2005-10-12 06:29:55 51°13.673 2°55.839 -999 0.011476 0.065419 -1.017215
2005-10-12 06:30:54 51°13.688 2°55.754 -999 0.011476 0.065416 -1.017215
2005-10-12 06:31:54 51°13.697 2°55.744 -999 0.011476 0.065413 -1.017215
2005-10-12 06:32:54 51°13.747 2°55.721 -999 0.011476 0.065411 -1.017215
2005-10-12 06:33:54 51°13.852 2°55.62 -999 0.011476 0.065408 -1.017215
2005-10-12 06:34:54 51°14.016 2°55.5 -999 0.011476 0.065407 -1.017215
2005-10-12 06:35:54 51°14.179 2°55.373 -999 0.011476 0.065406 -1.017215
2005-10-12 06:36:54 51°14.319 2°55.16 -999 0.011476 0.065404 -1.017215
2005-10-12 06:37:54 51°14.49 2°54.971 -999 0.011476 0.065401 -1.017215
2005-10-12 06:38:54 51°14.682 2°54.808 -999 0.011476 0.065404 -1.017215
2005-10-12 06:39:54 51°14.875 2°54.64 -999 4.03623 30.875072 -1.050924
2005-10-12 06:40:54 51°15.066 2°54.467 -999 4.022872 31.614415 -1.152053
2005-10-12 06:41:54 51°15.257 2°54.293 -999 4.026502 31.740836 -1.185762
2005-10-12 06:42:54 51°15.449 2°54.12 -999 4.015929 31.643373 -1.219471
2005-10-12 06:43:54 51°15.641 2°53.946 -999 4.04879 31.952601 -1.219471
2005-10-12 06:44:54 51°15.832 2°53.772 -999 4.05584 32.021915 -1.219471
2005-10-12 06:45:54 51°16.025 2°53.6 -999 4.062059 32.040959 -1.219471
2005-10-12 06:46:54 51°16.217 2°53.428 -999 4.065895 32.060818 -1.219471
2005-10-12 06:47:54 51°16.408 2°53.258 -999 4.070042 32.098611 -1.219471
2005-10-12 06:48:54 51°16.599 2°53.088 -999 4.045369 31.910642 -1.185762
2005-10-12 06:49:54 51°16.789 2°52.917 -999 4.037698 31.850411 -1.185762
2005-10-12 06:50:54 51°16.979 2°52.742 -999 4.033966 31.830075 -1.152053
2005-10-12 06:51:54 51°17.172 2°52.568 -999 4.02785 31.786782 -1.118343
2005-10-12 06:52:54 51°17.364 2°52.391 -999 4.027228 31.781967 -1.118343
2005-10-12 06:53:54 51°17.557 2°52.214 -999 4.025051 31.754289 -1.118343
2005-10-12 06:54:54 51°17.748 2°52.035 -999 4.024844 31.746566 -1.118343
2005-10-12 06:55:54 51°17.94 2°51.855 -999 4.027539 31.763707 -1.084634
2005-10-12 06:56:54 51°18.132 2°51.677 -999 4.028368 31.765753 -1.118343
2005-10-12 06:57:54 51°18.323 2°51.497 -999 4.036765 31.822503 -1.118343
2005-10-12 06:58:54 51°18.515 2°51.318 -999 4.045576 31.884177 -1.118343
2005-10-12 06:59:54 51°18.707 2°51.138 -999 4.045576 31.878263 -1.118343
2005-10-12 07:00:54 51°18.902 2°50.962 -999 4.046509 31.887774 -1.152053
2005-10-12 07:01:54 51°19.098 2°50.785 -999 4.052107 31.941575 -1.152053
2005-10-12 07:02:54 51°19.293 2°50.61 -999 4.047753 31.911201 -1.152053
2005-10-12 07:03:54 51°19.486 2°50.433 -999 4.067139 32.057881 -1.152053
2005-10-12 07:04:54 51°19.677 2°50.256 -999 4.105704 32.30997 -1.152053
2005-10-12 07:05:54 51°19.868 2°50.079 -999 4.122085 32.397286 -1.152053
2005-10-12 07:06:54 51°20.062 2°49.903 -999 4.129343 32.436345 -1.185762
2005-10-12 07:07:54 51°20.259 2°49.733 -999 4.130172 32.430995 -1.152053
2005-10-12 07:08:54 51°20.461 2°49.576 -999 4.134216 32.463774 -1.185762
2005-10-12 07:09:54 51°20.662 2°49.418 -999 4.142822 32.52855 -1.185762
2005-10-12 07:10:54 51°20.864 2°49.259 -999 4.129342 32.413773 -1.185762
2005-10-12 07:11:54 51°21.067 2°49.101 -999 4.146036 32.532754 -1.185762
2005-10-12 07:12:54 51°21.277 2°48.965 -999 4.147487 32.545467 -1.185762
2005-10-12 07:13:54 51°21.498 2°48.862 -999 4.137948 32.485182 -1.185762
2005-10-12 07:14:54 51°21.725 2°48.779 -999 4.13349 32.472039 -1.185762
2005-10-12 07:15:54 51°21.933 2°48.642 -999 4.130484 32.458311 -1.185762
2005-10-12 07:16:54 51°22.121 2°48.456 -999 4.200474 32.893033 -1.185762
2005-10-12 07:17:54 51°22.304 2°48.26 -999 4.199436 32.853188 -1.185762
2005-10-12 07:18:54 51°22.484 2°48.061 -999 4.215925 32.986552 -1.219471
2005-10-12 07:19:54 51°22.667 2°47.864 -999 4.212088 32.94766 -1.185762
2005-10-12 07:20:54 51°22.851 2°47.667 -999 4.207732 32.906935 -1.185762
2005-10-12 07:21:54 51°23.035 2°47.471 -999 4.212192 32.941199 -1.185762
2005-10-12 07:22:54 51°23.219 2°47.274 -999 4.226503 33.046756 -1.185762
2005-10-12 07:23:54 51°23.402 2°47.076 -999 4.259171 33.259983 -1.219471
2005-10-12 07:24:54 51°23.587 2°46.881 -999 4.269645 33.311582 -1.219471
2005-10-12 07:25:54 51°23.773 2°46.685 -999 4.258963 33.225855 -1.219471
2005-10-12 07:26:54 51°23.959 2°46.49 -999 4.265082 33.27651 -1.219471
2005-10-12 07:27:54 51°24.146 2°46.293 -999 4.261037 33.239901 -1.219471
2005-10-12 07:28:54 51°24.333 2°46.098 -999 4.262904 33.264928 -1.219471
2005-10-12 07:29:54 51°24.52 2°45.903 -999 4.261141 33.261002 -1.219471
2005-10-12 07:30:54 51°24.71 2°45.711 -999 4.260934 33.259193 -1.219471
2005-10-12 07:31:54 51°24.894 2°45.506 -999 4.259067 33.248297 -1.219471
2005-10-12 07:32:54 51°25.068 2°45.289 -999 4.282299 33.413823 -1.219471
2005-10-12 07:33:54 51°25.241 2°45.074 -999 4.315178 33.604225 -1.219471
2005-10-12 07:34:54 51°25.414 2°44.858 -999 4.331049 33.72001 -1.219471
2005-10-12 07:35:54 51°25.584 2°44.636 -999 4.322542 33.622929 -1.219471
2005-10-12 07:36:54 51°25.754 2°44.415 -999 4.347853 33.821382 -1.219471
2005-10-12 07:37:54 51°25.923 2°44.196 -999 4.349616 33.823113 -1.219471
2005-10-12 07:38:54 51°25.992 2°44.055 -999 4.332189 33.662115 -1.219471
2005-10-12 07:39:54 51°26.008 2°44.03 -999 4.350861 33.80878 -1.219471
2005-10-12 07:40:54 51°26.029 2°44.042 -999 4.355529 33.850716 -1.219471
2005-10-12 07:41:54 51°26.051 2°44.051 -999 4.348682 33.793243 -1.219471
2005-10-12 07:42:54 51°26.071 2°44.055 -999 4.35667 33.862678 -1.219471
2005-10-12 07:43:54 51°26.09 2°44.061 -999 4.355736 33.846398 -1.219471
2005-10-12 07:44:54 51°26.111 2°44.069 -999 4.358537 33.857818 -1.219471
2005-10-12 07:45:54 51°26.132 2°44.08 -999 4.360197 33.855921 -1.219471
2005-10-12 07:46:54 51°26.154 2°44.094 -999 4.35501 33.814948 -1.219471
2005-10-12 07:47:54 51°26.177 2°44.106 -999 4.361649 33.881459 -1.219471
2005-10-12 07:48:54 51°26.199 2°44.114 -999 4.35501 33.833968 -1.219471
2005-10-12 07:49:54 51°26.215 2°44.115 -999 4.361338 33.88556 -1.219471
2005-10-12 07:50:54 51°26.229 2°44.114 -999 4.360923 33.873108 -1.219471
2005-10-12 07:51:54 51°26.241 2°44.113 -999 4.360093 33.869298 -1.219471
2005-10-12 07:52:54 51°26.25 2°44.115 -999 4.35999 33.871798 -1.219471
2005-10-12 07:53:54 51°26.256 2°44.119 -999 4.350757 33.793617 -1.219471
2005-10-12 07:54:54 51°26.243 2°44.147 -999 4.346192 33.757359 -1.219471
2005-10-12 07:55:54 51°26.194 2°44.261 -999 4.35833 33.867579 -1.219471
2005-10-12 07:56:54 51°26.09 2°44.257 -999 4.365073 33.930289 -1.219471
2005-10-12 07:57:54 51°26.019 2°44.165 -999 4.360405 33.892424 -1.219471
2005-10-12 07:58:54 51°25.981 2°44.112 -999 4.362791 33.919306 -1.219471
2005-10-12 07:59:54 51°25.971 2°44.1 -999 4.360612 33.901723 -1.219471
2005-10-12 08:00:54 51°25.973 2°44.099 -999 4.358226 33.885062 -1.219471
2005-10-12 08:01:54 51°25.97 2°44.097 -999 4.360716 33.914217 -1.219471
2005-10-12 08:02:54 51°25.931 2°44.115 -999 4.361235 33.923505 -1.185762
2005-10-12 08:03:54 51°25.904 2°44.127 -999 4.360716 33.919674 -1.219471
2005-10-12 08:04:54 51°25.887 2°44.109 -999 4.355218 33.872521 -1.219471
2005-10-12 08:05:54 51°25.842 2°44.055 -999 4.359368 33.909987 -1.219471
2005-10-12 08:06:54 51°25.784 2°43.986 -999 4.360716 33.924451 -1.219471
2005-10-12 08:07:54 51°25.756 2°43.916 -999 4.357604 33.904191 -1.219471
2005-10-12 08:08:54 51°25.733 2°43.858 -999 4.354492 33.888701 -1.185762
2005-10-12 08:09:54 51°25.708 2°43.799 -999 4.355322 33.904116 -1.219471
2005-10-12 08:10:54 51°25.686 2°43.734 -999 4.350862 33.878923 -1.219471
2005-10-12 08:11:54 51°25.664 2°43.671 -999 4.350551 33.88577 -1.219471
2005-10-12 08:12:54 51°25.646 2°43.611 -999 4.349202 33.880167 -1.219471
2005-10-12 08:13:54 51°25.626 2°43.558 -999 4.348373 33.87635 -1.219471
2005-10-12 08:14:54 51°25.608 2°43.506 -999 4.34775 33.872293 -1.219471
2005-10-12 08:15:54 51°25.588 2°43.457 -999 4.346817 33.868254 -1.219471
2005-10-12 08:16:54 51°25.565 2°43.406 -999 4.346298 33.8651 -1.219471
2005-10-12 08:17:54 51°25.54 2°43.351 -999 4.345468 33.862648 -1.219471
2005-10-12 08:18:54 51°25.516 2°43.295 -999 4.345053 33.861763 -1.185762
2005-10-12 08:19:54 51°25.49 2°43.239 -999 4.344742 33.860416 -1.219471
2005-10-12 08:20:54 51°25.465 2°43.181 -999 4.344223 33.857944 -1.219471
2005-10-12 08:21:54 51°25.439 2°43.125 -999 4.343497 33.855029 -1.219471
2005-10-12 08:22:54 51°25.413 2°43.067 -999 4.341838 33.848072 -1.219471
2005-10-12 08:23:54 51°25.387 2°43.009 -999 4.340904 33.844029 -1.219471
2005-10-12 08:24:54 51°25.361 2°42.95 -999 4.340697 33.842903 -1.219471
2005-10-12 08:25:54 51°25.337 2°42.894 -999 4.340282 33.840651 -1.185762
2005-10-12 08:26:54 51°25.314 2°42.838 -999 4.339971 33.83862 -1.219471
2005-10-12 08:27:54 51°25.29 2°42.786 -999 4.339348 33.835242 -1.219471
2005-10-12 08:28:54 51°25.266 2°42.732 -999 4.338518 33.83142 -1.219471
2005-10-12 08:29:54 51°25.243 2°42.674 -999 4.337689 33.82828 -1.219471
2005-10-12 08:30:54 51°25.22 2°42.619 -999 4.33717 33.825122 -1.219471
2005-10-12 08:31:54 51°25.196 2°42.565 -999 4.336548 33.822425 -1.219471
2005-10-12 08:32:54 51°25.174 2°42.508 -999 4.336133 33.820855 -1.185762
2005-10-12 08:33:54 51°25.149 2°42.453 -999 4.335718 33.818601 -1.219471
2005-10-12 08:34:54 51°25.126 2°42.394 -999 4.33551 33.817474 -1.219471
2005-10-12 08:35:54 51°25.101 2°42.339 -999 4.334992 33.816365 -1.219471
2005-10-12 08:36:54 51°25.077 2°42.281 -999 4.335199 33.816809 -1.219471
2005-10-12 08:37:54 51°25.059 2°42.218 -999 4.335095 33.817953 -1.219471
2005-10-12 08:38:54 51°25.044 2°42.154 -999 4.335303 33.819763 -1.219471
2005-10-12 08:39:54 51°25.03 2°42.092 -999 4.33551 33.821573 -1.219471
2005-10-12 08:40:54 51°25.02 2°42.026 -999 4.336237 33.825858 -1.219471
2005-10-12 08:41:54 51°25.024 2°41.951 -999 4.336548 33.827207 -1.219471
2005-10-12 08:42:54 51°25.05 2°41.871 -999 4.336651 33.829478 -1.219471
2005-10-12 08:43:54 51°25.083 2°41.817 -999 4.337274 33.832858 -1.219471
2005-10-12 08:44:54 51°25.108 2°41.784 -999 4.338519 33.838251 -1.219471
2005-10-12 08:45:54 51°25.128 2°41.757 -999 4.33966 33.843421 -1.219471
2005-10-12 08:46:54 51°25.093 2°41.702 -999 4.340593 33.848831 -1.219471
2005-10-12 08:47:54 51°24.987 2°41.823 -999 4.341734 33.853999 -1.219471
2005-10-12 08:48:54 51°24.844 2°42.057 -999 4.340282 33.84475 -1.219471
2005-10-12 08:49:54 51°24.722 2°42.336 -999 4.334784 33.817287 -1.219471
2005-10-12 08:50:54 51°24.612 2°42.632 -999 4.329909 33.789771 -1.219471
2005-10-12 08:51:54 51°24.499 2°42.925 -999 4.325345 33.769054 -1.219471
2005-10-12 08:52:55 51°24.388 2°43.227 -999 4.323893 33.759106 -1.219471
2005-10-12 08:53:54 51°24.283 2°43.523 -999 4.322752 33.749827 -1.219471
2005-10-12 08:54:54 51°24.175 2°43.823 -999 4.321092 33.74148 -1.219471
2005-10-12 08:55:54 51°24.068 2°44.125 -999 4.323374 33.74093 -1.219471
2005-10-12 08:56:54 51°24.021 2°44.463 -999 4.320055 33.730376 -1.219471
2005-10-12 08:57:54 51°23.933 2°44.78 -999 4.317254 33.704561 -1.219471
2005-10-12 08:58:54 51°23.819 2°45.072 -999 4.313313 33.681056 -1.219471
2005-10-12 08:59:54 51°23.697 2°45.355 -999 4.310512 33.648435 -1.219471
2005-10-12 09:00:54 51°23.576 2°45.638 -999 4.308126 33.626254 -1.219471
2005-10-12 09:01:54 51°23.456 2°45.92 -999 4.301592 33.580782 -1.219471
2005-10-12 09:02:54 51°23.336 2°46.201 -999 4.296406 33.545706 -1.219471
2005-10-12 09:03:54 51°23.217 2°46.486 -999 4.293398 33.529633 -1.219471
2005-10-12 09:04:54 51°23.097 2°46.769 -999 4.290805 33.519214 -1.219471
2005-10-12 09:05:54 51°22.978 2°47.055 -999 4.2795 33.449648 -1.219471
2005-10-12 09:06:54 51°22.884 2°47.367 -999 4.263735 33.351863 -1.219471
2005-10-12 09:07:54 51°22.796 2°47.685 -999 4.254505 33.290113 -1.219471
2005-10-12 09:08:54 51°22.728 2°48.007 -999 4.250771 33.258822 -1.219471
2005-10-12 09:09:54 51°22.681 2°48.236 -999 4.24963 33.245471 -1.219471
2005-10-12 09:10:54 51°22.666 2°48.407 -999 4.248074 33.233898 -1.219471
2005-10-12 09:11:54 51°22.648 2°48.548 -999 4.24683 33.223019 -1.219471
2005-10-12 09:12:54 51°22.625 2°48.682 -999 4.245897 33.21621 -1.219471
2005-10-12 09:13:54 51°22.565 2°48.805 -999 4.244445 33.204194 -1.219471
2005-10-12 09:14:54 51°22.479 2°48.912 -999 4.244341 33.202612 -1.219471
2005-10-12 09:15:54 51°22.382 2°49 -999 4.243511 33.195361 -1.219471
2005-10-12 09:16:54 51°22.294 2°49.125 -999 4.243511 33.193338 -1.219471
2005-10-12 09:17:54 51°22.198 2°49.226 -999 4.240607 33.174026 -1.219471
2005-10-12 09:18:54 51°22.112 2°49.32 -999 4.237911 33.159893 -1.219471
2005-10-12 09:19:55 51°22.062 2°49.333 -999 4.235733 33.144897 -1.219471
2005-10-12 09:20:54 51°22.064 2°49.332 -999 4.234592 33.140314 -1.219471
2005-10-12 09:21:54 51°22.074 2°49.328 -999 4.23314 33.131662 -1.219471
2005-10-12 09:22:54 51°22.086 2°49.325 -999 4.233244 33.130547 -1.219471
2005-10-12 09:23:54 51°22.098 2°49.326 -999 4.233866 33.131946 -1.219471
2005-10-12 09:24:54 51°22.11 2°49.33 -999 4.234592 33.136945 -1.219471
2005-10-12 09:25:54 51°22.124 2°49.336 -999 4.236044 33.142901 -1.219471
2005-10-12 09:26:54 51°22.139 2°49.341 -999 4.238948 33.150093 -1.219471
2005-10-12 09:27:54 51°22.154 2°49.35 -999 4.240088 33.15198 -1.219471
2005-10-12 09:28:54 51°22.169 2°49.359 -999 4.239881 33.148822 -1.219471
2005-10-12 09:29:54 51°22.182 2°49.363 -999 4.239362 33.146311 -1.219471
2005-10-12 09:30:55 51°22.182 2°49.356 -999 4.237911 33.138339 -1.219471
2005-10-12 09:31:54 51°22.176 2°49.359 -999 4.236355 33.137538 -1.219471
2005-10-12 09:32:54 51°22.166 2°49.375 -999 4.235526 33.138368 -1.219471
2005-10-12 09:33:54 51°22.158 2°49.448 -999 4.235007 33.138551 -1.219471
2005-10-12 09:34:54 51°22.234 2°49.553 -999 4.235526 33.143757 -1.219471
2005-10-12 09:35:54 51°22.385 2°49.69 -999 4.237496 33.152223 -1.219471
2005-10-12 09:36:54 51°22.524 2°49.889 -999 4.2376 33.151782 -1.219471
2005-10-12 09:37:54 51°22.623 2°50.136 -999 4.241748 33.170517 -1.219471
2005-10-12 09:38:54 51°22.691 2°50.31 -999 4.244859 33.186918 -1.219471
2005-10-12 09:39:54 51°22.73 2°50.427 -999 4.235007 33.122391 -1.219471
2005-10-12 09:40:54 51°22.755 2°50.527 -999 4.22391 33.050299 -1.219471
2005-10-12 09:41:54 51°22.778 2°50.612 -999 4.21997 33.026603 -1.219471
2005-10-12 09:42:54 51°22.8 2°50.693 -999 4.218207 33.013206 -1.219471
2005-10-12 09:43:54 51°22.822 2°50.771 -999 4.212296 32.974282 -1.219471
2005-10-12 09:44:54 51°22.845 2°50.848 -999 4.208355 32.946535 -1.219471
2005-10-12 09:45:54 51°22.87 2°50.919 -999 4.206177 32.932857 -1.219471
2005-10-12 09:46:54 51°22.896 2°50.985 -999 4.203274 32.913499 -1.219471
2005-10-12 09:47:54 51°22.921 2°51.048 -999 4.204933 32.919965 -1.219471
2005-10-12 09:48:54 51°22.945 2°51.111 -999 4.206385 32.927967 -1.219471
2005-10-12 09:49:55 51°22.966 2°51.175 -999 4.205866 32.923433 -1.219471
2005-10-12 09:50:54 51°22.985 2°51.237 -999 4.204518 32.913658 -1.219471
2005-10-12 09:51:54 51°23.002 2°51.3 -999 4.202444 32.902224 -1.219471
2005-10-12 09:52:54 51°23.019 2°51.363 -999 4.202133 32.898833 -1.219471
2005-10-12 09:53:54 51°23.034 2°51.429 -999 4.201718 32.893867 -1.219471
2005-10-12 09:54:54 51°23.046 2°51.494 -999 4.20234 32.895958 -1.219471
2005-10-12 09:55:54 51°23.058 2°51.559 -999 4.206903 32.920439 -1.219471
2005-10-12 09:56:54 51°23.072 2°51.624 -999 4.209599 32.933953 -1.219471
2005-10-12 09:57:54 51°23.09 2°51.688 -999 4.209807 32.933086 -1.219471
2005-10-12 09:58:54 51°23.108 2°51.752 -999 4.209184 32.92832 -1.219471
2005-10-12 09:59:54 51°23.128 2°51.817 -999 4.206281 32.910314 -1.219471
2005-10-12 10:00:54 51°23.15 2°51.882 -999 4.203066 32.8936 -1.219471
2005-10-12 10:01:54 51°23.173 2°51.947 -999 4.199022 32.868957 -1.219471
2005-10-12 10:02:54 51°23.196 2°52.012 -999 4.195185 32.848125 -1.219471
2005-10-12 10:03:54 51°23.221 2°52.076 -999 4.193111 32.834003 -1.219471
2005-10-12 10:04:54 51°23.244 2°52.14 -999 4.189171 32.812249 -1.219471
2005-10-12 10:05:54 51°23.265 2°52.206 -999 4.187097 32.799458 -1.219471
2005-10-12 10:06:54 51°23.284 2°52.276 -999 4.185542 32.789194 -1.219471
2005-10-12 10:07:54 51°23.303 2°52.348 -999 4.183571 32.776637 -1.219471
2005-10-12 10:08:54 51°23.318 2°52.431 -999 4.184816 32.782176 -1.219471
2005-10-12 10:09:54 51°23.329 2°52.532 -999 4.186371 32.78843 -1.219471
2005-10-12 10:10:54 51°23.339 2°52.618 -999 4.185645 32.780746 -1.219471
2005-10-12 10:11:54 51°23.347 2°52.68 -999 4.18409 32.769815 -1.219471
2005-10-12 10:12:54 51°23.358 2°52.728 -999 4.182223 32.757499 -1.219471
2005-10-12 10:13:54 51°23.362 2°52.793 -999 4.18243 32.756642 -1.219471
2005-10-12 10:14:54 51°23.277 2°52.86 -999 4.181497 32.747146 -1.219471
2005-10-12 10:15:54 51°23.086 2°52.835 -999 4.18129 32.742663 -1.219471
2005-10-12 10:16:55 51°22.888 2°52.737 -999 4.184193 32.757371 -1.219471
2005-10-12 10:17:54 51°22.696 2°52.643 -999 4.174031 32.703199 -1.219471
2005-10-12 10:18:54 51°22.502 2°52.549 -999 4.169573 32.679528 -1.219471
2005-10-12 10:19:54 51°22.307 2°52.452 -999 4.166669 32.66479 -1.219471
2005-10-12 10:20:54 51°22.11 2°52.357 -999 4.170921 32.68999 -1.219471
2005-10-12 10:21:54 51°21.913 2°52.264 -999 4.168225 32.673734 -1.219471
2005-10-12 10:22:54 51°21.716 2°52.172 -999 4.163663 32.648471 -1.219471
2005-10-12 10:23:55 51°21.516 2°52.077 -999 4.160241 32.629847 -1.219471
2005-10-12 10:24:54 51°21.323 2°51.985 -999 4.1591 32.623859 -1.219471
2005-10-12 10:25:54 51°21.127 2°51.893 -999 4.158271 32.619261 -1.219471
2005-10-12 10:26:54 51°20.932 2°51.792 -999 4.162833 32.643876 -1.219471
2005-10-12 10:27:54 51°20.734 2°51.688 -999 4.172061 32.685965 -1.219471
2005-10-12 10:28:54 51°20.536 2°51.585 -999 4.172787 32.686315 -1.219471
2005-10-12 10:29:54 51°20.337 2°51.483 -999 4.165425 32.640575 -1.219471
2005-10-12 10:30:54 51°20.141 2°51.384 -999 4.154019 32.57272 -1.219471
2005-10-12 10:31:54 51°19.947 2°51.283 -999 4.129861 32.42827 -1.219471
2005-10-12 10:32:55 51°19.75 2°51.177 -999 4.105186 32.278236 -1.219471
2005-10-12 10:33:54 51°19.558 2°51.073 -999 4.096166 32.226238 -1.219471
2005-10-12 10:34:54 51°19.361 2°50.969 -999 4.091501 32.199846 -1.185762
2005-10-12 10:35:54 51°19.162 2°50.864 -999 4.089842 32.193223 -1.219471
2005-10-12 10:36:54 51°18.963 2°50.757 -999 4.091086 32.20812 -1.219471
2005-10-12 10:37:54 51°18.763 2°50.65 -999 4.08922 32.206299 -1.219471
2005-10-12 10:38:54 51°18.562 2°50.541 -999 4.090879 32.230819 -1.185762
2005-10-12 10:39:54 51°18.36 2°50.436 -999 4.095545 32.262533 -1.185762
2005-10-12 10:40:54 51°18.16 2°50.332 -999 4.123123 32.48231 -1.185762
2005-10-12 10:41:54 51°17.96 2°50.227 -999 4.14863 32.695239 -1.219471
2005-10-12 10:42:54 51°17.761 2°50.121 -999 4.153089 32.739176 -1.219471
2005-10-12 10:43:54 51°17.563 2°50.014 -999 4.15817 32.794005 -1.219471
2005-10-12 10:44:54 51°17.363 2°49.909 -999 4.162525 32.837756 -1.219471
2005-10-12 10:45:54 51°17.164 2°49.803 -999 4.163044 32.851107 -1.185762
2005-10-12 10:46:54 51°16.967 2°49.697 -999 4.165118 32.875467 -1.219471
2005-10-12 10:47:54 51°16.77 2°49.594 -999 4.170925 32.932746 -1.219471
2005-10-12 10:48:55 51°16.569 2°49.484 -999 4.1646 32.900015 -1.219471
2005-10-12 10:49:54 51°16.373 2°49.379 -999 4.155371 32.838926 -1.219471
2005-10-12 10:50:54 51°16.174 2°49.267 -999 4.150083 32.803771 -1.219471
2005-10-12 10:51:54 51°15.974 2°49.16 -999 4.146455 32.787979 -1.219471
2005-10-12 10:52:54 51°15.776 2°49.052 -999 4.144899 32.783722 -1.219471
2005-10-12 10:53:54 51°15.579 2°48.94 -999 4.130383 32.666381 -1.219471
2005-10-12 10:54:54 51°15.38 2°48.83 -999 4.124473 32.624323 -1.219471
2005-10-12 10:55:54 51°15.18 2°48.716 -999 4.119186 32.585052 -1.219471
2005-10-12 10:56:54 51°14.98 2°48.601 -999 4.12043 32.600077 -1.219471
2005-10-12 10:57:54 51°14.778 2°48.485 -999 4.123333 32.628409 -1.219471
2005-10-12 10:58:54 51°14.576 2°48.371 -999 4.126236 32.659449 -1.219471
2005-10-12 10:59:54 51°14.373 2°48.258 -999 4.129762 32.691269 -1.219471
2005-10-12 11:00:54 51°14.179 2°48.124 -999 4.130591 32.69995 -1.219471
2005-10-12 11:01:54 51°14.058 2°48.051 -999 4.123955 32.652799 -1.219471
2005-10-12 11:02:54 51°14.01 2°48.027 -999 4.120016 32.622708 -1.219471
2005-10-12 11:03:55 51°14.016 2°48.021 -999 4.119497 32.620826 -1.219471
2005-10-12 11:04:54 51°14.021 2°48.012 -999 4.12126 32.64113 -1.219471
2005-10-12 11:05:55 51°14.026 2°48.002 -999 4.123023 32.65671 -1.219471
2005-10-12 11:06:54 51°14.031 2°47.992 -999 4.123334 32.660136 -1.219471
2005-10-12 11:07:54 51°14.036 2°47.981 -999 4.125096 32.676394 -1.219471
2005-10-12 11:08:54 51°14.037 2°47.958 -999 4.126133 32.684208 -1.185762
2005-10-12 11:09:55 51°14.026 2°47.92 -999 4.127585 32.68825 -1.219471
2005-10-12 11:10:54 51°14.01 2°47.892 -999 4.127273 32.686176 -1.219471
2005-10-12 11:11:55 51°13.992 2°47.876 -999 4.126237 32.68242 -1.219471
2005-10-12 11:12:55 51°13.977 2°47.877 -999 4.125511 32.684118 -1.219471
2005-10-12 11:13:54 51°13.971 2°47.891 -999 4.124993 32.684269 -1.219471
2005-10-12 11:14:54 51°13.974 2°47.901 -999 4.124474 32.681714 -1.219471
2005-10-12 11:15:54 51°13.979 2°47.908 -999 4.123645 32.668969 -1.219471
2005-10-12 11:16:54 51°13.986 2°47.915 -999 4.121571 32.643879 -1.219471
2005-10-12 11:17:54 51°14 2°47.974 -999 4.120016 32.626082 -1.219471
2005-10-12 11:18:55 51°14.013 2°48.082 -999 4.117527 32.604092 -1.219471
2005-10-12 11:19:54 51°14.026 2°48.206 -999 4.114832 32.584316 -1.219471
2005-10-12 11:20:55 51°14.03 2°48.338 -999 4.111306 32.558556 -1.219471
2005-10-12 11:21:55 51°14.016 2°48.444 -999 4.107159 32.523928 -1.219471
2005-10-12 11:22:54 51°14.007 2°48.528 -999 4.103323 32.493396 -1.219471
2005-10-12 11:23:55 51°14.005 2°48.61 -999 4.101146 32.475503 -1.219471
2005-10-12 11:24:54 51°14.005 2°48.687 -999 4.098969 32.458954 -1.185762
2005-10-12 11:25:55 51°14.009 2°48.763 -999 4.095651 32.436357 -1.219471
2005-10-12 11:26:54 51°14.023 2°48.834 -999 4.092023 32.412349 -1.185762
2005-10-12 11:27:54 51°14.039 2°48.905 -999 4.089327 32.394567 -1.185762
2005-10-12 11:28:54 51°14.054 2°48.975 -999 4.087772 32.382836 -1.219471
2005-10-12 11:29:54 51°14.072 2°49.042 -999 4.08601 32.370612 -1.219471
2005-10-12 11:30:54 51°14.089 2°49.104 -999 4.084351 32.359304 -1.185762
2005-10-12 11:31:54 51°14.105 2°49.166 -999 4.083418 32.351728 -1.185762
2005-10-12 11:32:54 51°14.122 2°49.226 -999 4.082381 32.341225 -1.185762
2005-10-12 11:33:54 51°14.143 2°49.286 -999 4.080929 32.326389 -1.219471
2005-10-12 11:34:55 51°14.163 2°49.347 -999 4.079582 32.311802 -1.185762
2005-10-12 11:35:54 51°14.181 2°49.407 -999 4.078338 32.298135 -1.185762
2005-10-12 11:36:54 51°14.197 2°49.468 -999 4.077819 32.2862 -1.185762
2005-10-12 11:37:54 51°14.214 2°49.53 -999 4.07699 32.274865 -1.219471
2005-10-12 11:38:55 51°14.234 2°49.591 -999 4.074916 32.255889 -1.185762
2005-10-12 11:39:54 51°14.256 2°49.648 -999 4.072635 32.237086 -1.219471
2005-10-12 11:40:54 51°14.279 2°49.705 -999 4.071288 32.22452 -1.185762
2005-10-12 11:41:54 51°14.298 2°49.765 -999 4.070562 32.21678 -1.185762
2005-10-12 11:42:54 51°14.318 2°49.825 -999 4.069629 32.20921 -1.185762
2005-10-12 11:43:54 51°14.337 2°49.886 -999 4.068074 32.198816 -1.185762
2005-10-12 11:44:54 51°14.355 2°49.946 -999 4.06683 32.191833 -1.185762
2005-10-12 11:45:54 51°14.375 2°50.004 -999 4.066312 32.18859 -1.219471
2005-10-12 11:46:54 51°14.398 2°50.06 -999 4.06569 32.185097 -1.219471
2005-10-12 11:47:54 51°14.424 2°50.113 -999 4.065068 32.179606 -1.185762
2005-10-12 11:48:54 51°14.448 2°50.169 -999 4.064238 32.172283 -1.185762
2005-10-12 11:49:54 51°14.471 2°50.224 -999 4.063201 32.164463 -1.185762
2005-10-12 11:50:55 51°14.495 2°50.28 -999 4.062372 32.157807 -1.185762
2005-10-12 11:51:54 51°14.517 2°50.335 -999 4.061957 32.155478 -1.185762
2005-10-12 11:52:55 51°14.541 2°50.391 -999 4.061439 32.151568 -1.185762
2005-10-12 11:53:54 51°14.565 2°50.444 -999 4.061128 32.149488 -1.185762
2005-10-12 11:54:55 51°14.589 2°50.501 -999 4.060817 32.146742 -1.185762
2005-10-12 11:55:54 51°14.609 2°50.558 -999 4.061232 32.147074 -1.185762
2005-10-12 11:56:55 51°14.628 2°50.618 -999 4.061232 32.144411 -1.185762
2005-10-12 11:57:54 51°14.645 2°50.676 -999 4.061335 32.143329 -1.185762
2005-10-12 11:58:54 51°14.659 2°50.737 -999 4.061232 32.139752 -1.185762
2005-10-12 11:59:55 51°14.671 2°50.803 -999 4.061024 32.134595 -1.185762
2005-10-12 12:00:54 51°14.679 2°50.876 -999 4.061128 32.130854 -1.185762
2005-10-12 12:01:54 51°14.687 2°50.951 -999 4.061231 32.129108 -1.185762
2005-10-12 12:02:55 51°14.693 2°51.027 -999 4.061231 32.126449 -1.185762
2005-10-12 12:03:55 51°14.696 2°51.095 -999 4.061024 32.120631 -1.185762
2005-10-12 12:04:55 51°14.695 2°51.136 -999 4.060713 32.117223 -1.185762
2005-10-12 12:05:54 51°14.696 2°51.16 -999 4.060402 32.113151 -1.185762
2005-10-12 12:06:54 51°14.682 2°51.227 -999 4.060298 32.111572 -1.185762
2005-10-12 12:07:55 51°14.601 2°51.278 -999 4.059365 32.099358 -1.185762
2005-10-12 12:08:55 51°14.502 2°51.259 -999 4.057603 32.088464 -1.185762
2005-10-12 12:09:55 51°14.433 2°51.173 -999 4.055426 32.079221 -1.185762
2005-10-12 12:10:55 51°14.39 2°51.084 -999 4.054908 32.079296 -1.185762
2005-10-12 12:11:54 51°14.36 2°51.007 -999 4.05553 32.080136 -1.185762
2005-10-12 12:12:55 51°14.333 2°50.937 -999 4.057603 32.093112 -1.185762
2005-10-12 12:13:54 51°14.313 2°50.869 -999 4.059365 32.106 -1.185762
2005-10-12 12:14:54 51°14.295 2°50.799 -999 4.060298 32.115559 -1.185762
2005-10-12 12:15:55 51°14.278 2°50.727 -999 4.061646 32.121466 -1.185762
2005-10-12 12:16:54 51°14.26 2°50.659 -999 4.062579 32.125043 -1.185762
2005-10-12 12:17:55 51°14.243 2°50.588 -999 4.063823 32.135349 -1.185762
2005-10-12 12:18:54 51°14.226 2°50.519 -999 4.066104 32.15081 -1.185762
2005-10-12 12:19:55 51°14.206 2°50.448 -999 4.067037 32.157708 -1.185762
2005-10-12 12:20:54 51°14.188 2°50.38 -999 4.066104 32.154135 -1.185762
2005-10-12 12:21:55 51°14.169 2°50.308 -999 4.066829 32.156544 -1.185762
2005-10-12 12:22:55 51°14.149 2°50.238 -999 4.070458 32.180559 -1.185762
2005-10-12 12:23:54 51°14.131 2°50.167 -999 4.074086 32.205233 -1.185762
2005-10-12 12:24:54 51°14.112 2°50.097 -999 4.077196 32.228661 -1.185762
2005-10-12 12:25:54 51°14.092 2°50.028 -999 4.080099 32.25359 -1.185762
2005-10-12 12:26:55 51°14.073 2°49.958 -999 4.079581 32.240357 -1.185762
2005-10-12 12:27:54 51°14.053 2°49.89 -999 4.077714 32.221911 -1.185762
2005-10-12 12:28:54 51°14.033 2°49.821 -999 4.075226 32.199981 -1.185762
2005-10-12 12:29:55 51°14.013 2°49.75 -999 4.072842 32.186946 -1.185762
2005-10-12 12:30:54 51°13.993 2°49.681 -999 4.07108 32.177396 -1.185762
2005-10-12 12:31:55 51°13.975 2°49.608 -999 4.069732 32.17283 -1.185762
2005-10-12 12:32:55 51°13.956 2°49.539 -999 4.069317 32.175826 -1.185762
2005-10-12 12:33:55 51°13.938 2°49.469 -999 4.07025 32.18472 -1.185762
2005-10-12 12:34:54 51°13.919 2°49.399 -999 4.071702 32.197521 -1.185762
2005-10-12 12:35:55 51°13.899 2°49.31 -999 4.072117 32.20251 -1.185762
2005-10-12 12:36:55 51°13.886 2°49.206 -999 4.071391 32.196775 -1.185762
2005-10-12 12:37:55 51°13.881 2°49.097 -999 4.073672 32.214229 -1.185762
2005-10-12 12:38:54 51°13.887 2°48.985 -999 4.076989 32.240159 -1.185762
2005-10-12 12:39:54 51°13.897 2°48.879 -999 4.079374 32.260526 -1.219471
2005-10-12 12:40:54 51°13.896 2°48.797 -999 4.080721 32.271081 -1.185762
2005-10-12 12:41:55 51°13.896 2°48.693 -999 4.079996 32.265346 -1.219471
2005-10-12 12:42:55 51°13.997 2°48.592 -999 4.078751 32.250371 -1.185762
2005-10-12 12:43:54 51°14.1 2°48.74 -999 4.07844 32.236299 -1.185762
2005-10-12 12:44:55 51°14.166 2°48.997 -999 4.075434 32.215119 -1.185762
2005-10-12 12:45:55 51°14.22 2°49.265 -999 4.07419 32.20881 -1.219471
2005-10-12 12:46:55 51°14.274 2°49.533 -999 4.07108 32.187375 -1.219471
2005-10-12 12:47:55 51°14.33 2°49.802 -999 4.071805 32.195106 -1.185762
2005-10-12 12:48:54 51°14.384 2°50.066 -999 4.068073 32.16552 -1.185762
2005-10-12 12:49:55 51°14.441 2°50.34 -999 4.064963 32.138095 -1.185762
2005-10-12 12:50:54 51°14.498 2°50.605 -999 4.064237 32.121732 -1.185762
2005-10-12 12:51:54 51°14.548 2°50.877 -999 4.061127 32.098965 -1.185762
2005-10-12 12:52:54 51°14.586 2°51.153 -999 4.056981 32.075015 -1.185762
2005-10-12 12:53:55 51°14.626 2°51.434 -999 4.055218 32.065446 -1.185762
2005-10-12 12:54:55 51°14.666 2°51.711 -999 4.054907 32.061378 -1.185762
2005-10-12 12:55:54 51°14.705 2°51.982 -999 4.053871 32.048259 -1.185762
2005-10-12 12:56:55 51°14.719 2°52.269 -999 4.052108 32.034711 -1.185762
2005-10-12 12:57:54 51°14.721 2°52.541 -999 4.049828 32.017917 -1.185762
2005-10-12 12:58:55 51°14.72 2°52.727 -999 4.047962 32.007427 -1.152053
2005-10-12 12:59:54 51°14.716 2°52.859 -999 4.045474 31.981521 -1.152053
2005-10-12 13:00:55 51°14.699 2°52.94 -999 4.029405 31.794551 -1.185762
2005-10-12 13:01:54 51°14.68 2°53.029 -999 4.025362 31.757024 -1.185762
2005-10-12 13:02:55 51°14.663 2°53.302 -999 4.027954 31.796232 -1.185762
2005-10-12 13:03:55 51°14.63 2°53.616 -999 4.027747 31.813473 -1.185762
2005-10-12 13:04:54 51°14.593 2°53.934 -999 4.03604 31.873326 -1.185762
2005-10-12 13:05:55 51°14.547 2°54.259 -999 4.035003 31.845771 -1.185762
2005-10-12 13:06:54 51°14.489 2°54.563 -999 4.026813 31.762573 -1.185762
2005-10-12 13:07:55 51°14.424 2°54.865 -999 4.022875 31.74957 -1.152053
2005-10-12 13:08:55 51°14.34 2°55.131 -999 3.995509 31.507647 -1.118343
2005-10-12 13:09:55 51°14.221 2°55.332 -999 3.916946 30.825994 -1.084634
2005-10-12 13:10:55 51°14.106 2°55.432 -999 3.888966 30.580964 -1.084634
2005-10-12 13:11:55 51°13.994 2°55.516 -999 3.82161 29.920637 -1.017215
2005-10-12 13:12:55 51°13.879 2°55.599 -999 3.809695 29.800351 -1.152053
2005-10-12 13:13:55 51°13.771 2°55.694 -999 3.792599 29.673074 -1.118343
2005-10-12 13:14:55 51°13.698 2°55.821 -999 3.525163 27.214757 -1.152053
2005-10-12 13:15:55 51°13.653 2°55.931 -999 3.654718 28.394215 -1.152053
2005-10-12 13:16:55 51°13.623 2°56.03 -999 3.760275 29.351621 -0.916087
2005-10-12 13:17:55 51°13.607 2°56.092 -999 0.719704 4.325054 -0.343027